createdAt,value
2023-05-25T00:01:17.603Z,14.75
2023-05-25T00:03:45.996Z,14.74
2023-05-25T00:06:15.566Z,14.73
2023-05-25T00:08:43.596Z,14.74
2023-05-25T00:11:12.414Z,14.78
2023-05-25T00:13:40.644Z,14.76
2023-05-25T00:16:08.650Z,14.74
2023-05-25T00:18:41.290Z,14.72
2023-05-25T00:21:10.748Z,14.73
2023-05-25T00:23:38.755Z,14.76
2023-05-25T00:26:06.695Z,14.76
2023-05-25T00:28:34.756Z,14.77
2023-05-25T00:31:02.990Z,14.80
2023-05-25T00:33:31.135Z,14.78
2023-05-25T00:36:00.260Z,14.76
2023-05-25T00:38:28.227Z,14.78
2023-05-25T00:40:58.932Z,14.77
2023-05-25T00:43:26.948Z,14.72
2023-05-25T00:45:56.379Z,14.76
2023-05-25T00:48:26.718Z,14.68
2023-05-25T00:51:00.079Z,14.69
2023-05-25T00:53:28.640Z,14.72
2023-05-25T00:56:14.272Z,14.76
2023-05-25T00:58:46.261Z,14.74
2023-05-25T01:01:16.223Z,14.75
2023-05-25T01:03:48.464Z,14.74
2023-05-25T01:06:17.710Z,14.75
2023-05-25T01:08:51.834Z,14.72
2023-05-25T01:11:26.691Z,14.74
2023-05-25T01:13:54.965Z,14.71
2023-05-25T01:16:26.066Z,14.72
2023-05-25T01:18:54.350Z,14.70
2023-05-25T01:21:29.107Z,14.68
2023-05-25T01:24:12.171Z,14.67
2023-05-25T01:26:48.718Z,14.66
2023-05-25T01:29:20.205Z,14.64
2023-05-25T01:31:48.414Z,14.66
2023-05-25T01:34:17.441Z,14.64
2023-05-25T01:36:45.672Z,14.66
2023-05-25T01:39:14.178Z,14.66
2023-05-25T01:41:42.377Z,14.65
2023-05-25T01:44:11.018Z,14.63
2023-05-25T01:46:40.438Z,14.59
2023-05-25T01:49:32.672Z,14.57
2023-05-25T01:52:12.967Z,14.53
2023-05-25T01:54:47.582Z,14.50
2023-05-25T01:57:18.690Z,14.49
2023-05-25T01:59:48.411Z,14.45
2023-05-25T02:02:18.993Z,14.42
2023-05-25T02:04:47.733Z,14.43
2023-05-25T02:07:17.280Z,14.43
2023-05-25T02:09:45.973Z,14.42
2023-05-25T02:12:14.170Z,14.41
2023-05-25T02:14:42.209Z,14.40
2023-05-25T02:17:12.731Z,14.38
2023-05-25T02:19:40.881Z,14.39
2023-05-25T02:22:08.886Z,14.36
2023-05-25T02:24:38.136Z,14.31
2023-05-25T02:27:06.961Z,14.30
2023-05-25T02:29:35.130Z,14.28
2023-05-25T02:32:03.176Z,14.27
2023-05-25T02:34:31.219Z,14.24
2023-05-25T02:36:59.254Z,14.23
2023-05-25T02:39:28.025Z,14.21
2023-05-25T02:41:56.688Z,14.18
2023-05-25T02:44:24.883Z,14.18
2023-05-25T02:46:53.244Z,14.17
2023-05-25T02:49:21.418Z,14.14
2023-05-25T02:51:49.589Z,14.09
2023-05-25T02:54:17.642Z,14.09
2023-05-25T02:56:46.644Z,14.03
2023-05-25T02:59:15.939Z,14.06
2023-05-25T03:01:44.054Z,14.07
2023-05-25T03:04:12.096Z,14.05
2023-05-25T03:06:41.011Z,14.09
2023-05-25T03:09:15.127Z,14.05
2023-05-25T03:11:43.592Z,14.05
2023-05-25T03:14:14.719Z,14.07
2023-05-25T03:16:44.896Z,14.07
2023-05-25T03:19:13.534Z,14.11
2023-05-25T03:21:42.159Z,14.09
2023-05-25T03:24:10.289Z,14.11
2023-05-25T03:26:39.033Z,14.15
2023-05-25T03:29:07.551Z,14.14
2023-05-25T03:31:36.043Z,14.13
2023-05-25T03:34:04.574Z,14.14
2023-05-25T03:36:34.069Z,14.16
2023-05-25T03:39:02.136Z,14.17
2023-05-25T03:41:30.578Z,14.17
2023-05-25T03:43:58.736Z,14.17
2023-05-25T03:46:27.164Z,14.16
2023-05-25T03:48:57.705Z,14.19
2023-05-25T03:51:25.939Z,14.13
2023-05-25T03:53:54.073Z,14.08
2023-05-25T03:56:23.083Z,14.21
2023-05-25T03:58:52.856Z,14.15
2023-05-25T04:01:21.004Z,14.21
2023-05-25T04:03:49.200Z,14.19
2023-05-25T04:06:19.394Z,14.19
2023-05-25T04:08:48.115Z,14.26
2023-05-25T04:11:16.271Z,14.35
2023-05-25T04:13:44.380Z,14.36
2023-05-25T04:16:13.944Z,14.36
2023-05-25T04:18:42.852Z,14.33
2023-05-25T04:21:10.983Z,14.40
2023-05-25T04:23:39.023Z,14.46
2023-05-25T04:26:10.379Z,14.40
2023-05-25T04:28:43.695Z,14.47
2023-05-25T04:31:22.037Z,14.49
2023-05-25T04:34:29.784Z,14.57
2023-05-25T04:37:13.330Z,14.61
2023-05-25T04:39:41.453Z,14.67
2023-05-25T04:42:09.718Z,14.73
2023-05-25T04:44:40.121Z,14.76
2023-05-25T04:47:08.771Z,14.82
2023-05-25T04:49:37.222Z,14.85
2023-05-25T04:52:06.282Z,14.94
2023-05-25T04:54:34.614Z,15.10
2023-05-25T04:57:03.746Z,15.07
2023-05-25T04:59:33.189Z,15.13
2023-05-25T05:02:01.929Z,15.26
2023-05-25T05:04:30.537Z,15.40
2023-05-25T05:06:59.920Z,15.51
2023-05-25T05:09:30.067Z,15.56
2023-05-25T05:12:01.033Z,15.63
2023-05-25T05:14:29.873Z,15.60
2023-05-25T05:16:58.150Z,15.64
2023-05-25T05:19:26.425Z,15.64
2023-05-25T05:21:54.838Z,15.76
2023-05-25T05:24:23.023Z,15.85
2023-05-25T05:26:58.118Z,15.89
2023-05-25T05:29:38.800Z,15.99
2023-05-25T05:32:07.504Z,16.04
2023-05-25T05:34:36.286Z,16.04
2023-05-25T05:37:08.150Z,16.18
2023-05-25T05:39:37.465Z,16.25
2023-05-25T05:42:07.085Z,16.39
2023-05-25T05:44:35.945Z,16.46
2023-05-25T05:47:04.279Z,16.58
2023-05-25T05:49:34.468Z,16.78
2023-05-25T05:52:03.678Z,17.05
2023-05-25T05:54:32.189Z,17.15
2023-05-25T05:57:06.609Z,17.28
2023-05-25T05:59:34.974Z,17.34
2023-05-25T06:02:03.607Z,17.42
2023-05-25T06:04:32.766Z,17.42
2023-05-25T06:07:01.101Z,17.55
2023-05-25T06:09:29.595Z,17.53
2023-05-25T06:12:00.894Z,17.60
2023-05-25T06:14:29.431Z,17.65
2023-05-25T06:17:00.130Z,17.67
2023-05-25T06:19:33.648Z,17.74
2023-05-25T06:22:02.503Z,17.77
2023-05-25T06:24:31.708Z,17.82
2023-05-25T06:27:05.553Z,17.86
2023-05-25T06:29:34.454Z,17.81
2023-05-25T06:32:03.136Z,17.85
2023-05-25T06:34:32.386Z,17.98
2023-05-25T06:37:04.460Z,18.07
2023-05-25T06:39:32.893Z,18.18
2023-05-25T06:42:01.749Z,18.29
2023-05-25T06:44:32.325Z,18.39
2023-05-25T06:47:03.650Z,18.36
2023-05-25T06:49:32.955Z,18.52
2023-05-25T06:52:01.120Z,18.74
2023-05-25T06:54:29.738Z,18.96
2023-05-25T06:56:58.222Z,19.00
2023-05-25T06:59:27.882Z,19.20
2023-05-25T07:01:56.514Z,19.44
2023-05-25T07:04:25.226Z,19.67
2023-05-25T07:06:53.412Z,19.82
2023-05-25T07:09:27.933Z,19.99
2023-05-25T07:11:56.325Z,20.09
2023-05-25T07:14:24.721Z,20.10
2023-05-25T07:16:53.870Z,19.96
2023-05-25T07:19:22.235Z,20.06
2023-05-25T07:21:50.571Z,20.21
2023-05-25T07:24:19.325Z,20.36
2023-05-25T07:26:48.974Z,20.38
2023-05-25T07:29:17.539Z,20.61
2023-05-25T07:31:46.572Z,20.63
2023-05-25T07:34:15.730Z,20.81
2023-05-25T07:36:44.619Z,20.91
2023-05-25T07:39:13.354Z,21.12
2023-05-25T07:41:41.391Z,21.41
2023-05-25T07:44:09.793Z,21.43
2023-05-25T07:46:38.833Z,21.43
2023-05-25T07:49:17.088Z,21.53
2023-05-25T07:51:46.114Z,21.87
2023-05-25T07:54:14.599Z,21.79
2023-05-25T07:56:45.522Z,21.73
2023-05-25T07:59:16.748Z,21.76
2023-05-25T08:01:45.479Z,21.83
2023-05-25T08:04:16.496Z,22.16
2023-05-25T08:06:46.995Z,22.08
2023-05-25T08:09:15.686Z,22.20
2023-05-25T08:11:45.896Z,22.13
2023-05-25T08:14:15.329Z,22.33
2023-05-25T08:16:44.339Z,22.10
2023-05-25T08:19:12.863Z,22.06
2023-05-25T08:21:42.553Z,22.08
2023-05-25T08:24:11.079Z,22.19
2023-05-25T08:26:53.716Z,22.12
2023-05-25T08:29:25.573Z,22.20
2023-05-25T08:31:54.326Z,22.51
2023-05-25T08:34:25.719Z,22.46
2023-05-25T08:37:00.745Z,22.45
2023-05-25T08:39:34.083Z,22.43
2023-05-25T08:42:04.235Z,22.45
2023-05-25T08:44:35.526Z,22.35
2023-05-25T08:47:18.427Z,22.34
2023-05-25T08:49:49.493Z,22.56
2023-05-25T08:52:23.061Z,22.99
2023-05-25T08:54:55.694Z,23.05
2023-05-25T08:57:53.498Z,23.16
2023-05-25T09:00:36.490Z,23.06
2023-05-25T09:03:24.223Z,23.11
2023-05-25T09:06:00.157Z,23.55
2023-05-25T09:08:29.006Z,23.77
2023-05-25T09:10:58.748Z,23.94
2023-05-25T09:13:31.499Z,24.09
2023-05-25T09:16:02.190Z,24.43
2023-05-25T09:18:30.747Z,24.63
2023-05-25T09:20:59.987Z,24.92
2023-05-25T09:23:30.582Z,25.26
2023-05-25T09:25:59.418Z,25.38
2023-05-25T09:28:27.985Z,25.42
2023-05-25T09:31:06.501Z,25.21
2023-05-25T09:33:43.459Z,25.29
2023-05-25T09:36:55.762Z,25.21
2023-05-25T09:39:26.134Z,25.22
2023-05-25T09:41:58.221Z,25.46
2023-05-25T09:44:27.367Z,25.08
2023-05-25T09:46:56.665Z,25.70
2023-05-25T09:49:27.083Z,26.33
2023-05-25T09:51:57.516Z,26.72
2023-05-25T09:54:26.713Z,26.87
2023-05-25T09:56:55.399Z,26.67
2023-05-25T09:59:23.849Z,26.82
2023-05-25T10:01:54.019Z,26.84
2023-05-25T10:04:22.679Z,26.68
2023-05-25T10:06:51.907Z,26.81
2023-05-25T10:09:21.027Z,26.59
2023-05-25T10:11:51.913Z,26.78
2023-05-25T10:14:29.127Z,27.03
2023-05-25T10:16:59.851Z,27.12
2023-05-25T10:19:43.335Z,26.68
2023-05-25T10:22:25.939Z,26.62
2023-05-25T10:24:58.944Z,27.03
2023-05-25T10:27:37.889Z,26.77
2023-05-25T10:30:08.014Z,26.66
2023-05-25T10:32:39.749Z,26.41
2023-05-25T10:35:10.383Z,26.52
2023-05-25T10:37:40.290Z,26.79
2023-05-25T10:40:09.998Z,27.40
2023-05-25T10:42:39.428Z,26.90
2023-05-25T10:45:09.571Z,27.59
2023-05-25T10:47:46.782Z,27.82
2023-05-25T10:50:29.069Z,27.54
2023-05-25T10:53:18.589Z,27.24
2023-05-25T10:56:01.893Z,27.60
2023-05-25T10:58:32.294Z,27.81
2023-05-25T11:01:12.508Z,27.72
2023-05-25T11:03:44.265Z,28.29
2023-05-25T11:06:15.992Z,28.65
2023-05-25T11:09:05.950Z,29.08
2023-05-25T11:11:43.628Z,29.00
2023-05-25T11:14:33.094Z,29.04
2023-05-25T11:17:18.377Z,28.45
2023-05-25T11:19:52.211Z,28.56
2023-05-25T11:22:31.887Z,28.94
2023-05-25T11:25:01.994Z,28.82
2023-05-25T11:27:32.194Z,29.36
2023-05-25T11:30:00.785Z,29.13
2023-05-25T11:32:30.316Z,28.27
2023-05-25T11:35:01.616Z,28.75
2023-05-25T11:37:31.923Z,28.98
2023-05-25T11:40:00.809Z,29.09
2023-05-25T11:42:31.888Z,29.38
2023-05-25T11:45:03.706Z,29.53
2023-05-25T11:47:34.050Z,29.13
2023-05-25T11:50:03.719Z,28.91
2023-05-25T11:52:35.194Z,29.73
2023-05-25T11:55:22.118Z,30.64
2023-05-25T11:57:58.357Z,29.99
2023-05-25T12:00:28.667Z,29.19
2023-05-25T12:02:57.822Z,29.51
2023-05-25T12:05:26.658Z,29.41
2023-05-25T12:07:55.313Z,29.87
2023-05-25T12:10:26.155Z,29.71
2023-05-25T12:12:59.145Z,28.96
2023-05-25T12:15:30.696Z,29.44
2023-05-25T12:17:59.543Z,29.27
2023-05-25T12:20:28.384Z,29.24
2023-05-25T12:23:01.439Z,29.61
2023-05-25T12:25:38.735Z,29.60
2023-05-25T12:28:20.110Z,29.46
2023-05-25T12:30:49.677Z,30.02
2023-05-25T12:33:18.983Z,30.39
2023-05-25T12:35:50.880Z,30.81
2023-05-25T12:38:28.721Z,30.81
2023-05-25T12:41:09.181Z,31.06
2023-05-25T12:43:44.173Z,31.47
2023-05-25T12:46:30.045Z,30.52
2023-05-25T12:49:01.132Z,30.81
2023-05-25T12:51:42.986Z,31.71
2023-05-25T12:54:15.386Z,31.12
2023-05-25T12:56:57.401Z,31.24
2023-05-25T12:59:26.412Z,31.44
2023-05-25T13:01:57.022Z,31.95
2023-05-25T13:04:28.798Z,31.17
2023-05-25T13:06:58.079Z,31.26
2023-05-25T13:09:29.005Z,31.80
2023-05-25T13:12:02.005Z,31.57
2023-05-25T13:14:32.574Z,31.77
2023-05-25T13:17:01.344Z,31.72
2023-05-25T13:19:30.759Z,31.91
2023-05-25T13:21:59.078Z,32.36
2023-05-25T13:24:30.385Z,32.21
2023-05-25T13:26:58.715Z,31.67
2023-05-25T13:29:29.012Z,31.69
2023-05-25T13:31:57.783Z,31.83
2023-05-25T13:34:26.069Z,31.77
2023-05-25T13:36:55.057Z,32.24
2023-05-25T13:39:23.700Z,32.04
2023-05-25T13:41:52.017Z,32.81
2023-05-25T13:44:20.372Z,33.23
2023-05-25T13:46:49.021Z,33.50
2023-05-25T13:49:19.944Z,33.36
2023-05-25T13:51:48.307Z,33.59
2023-05-25T13:54:16.596Z,33.44
2023-05-25T13:56:45.763Z,33.54
2023-05-25T13:59:14.188Z,33.90
2023-05-25T14:01:42.439Z,32.89
2023-05-25T14:04:11.959Z,31.70
2023-05-25T14:06:40.209Z,31.96
2023-05-25T14:09:10.234Z,32.70
2023-05-25T14:11:39.826Z,33.43
2023-05-25T14:14:13.844Z,33.44
2023-05-25T14:16:44.897Z,33.52
2023-05-25T14:19:15.394Z,33.66
2023-05-25T14:21:43.733Z,34.11
2023-05-25T14:24:12.210Z,34.93
2023-05-25T14:26:42.714Z,34.91
2023-05-25T14:29:13.073Z,34.36
2023-05-25T14:31:42.133Z,33.03
2023-05-25T14:34:10.697Z,31.96
2023-05-25T14:36:38.983Z,31.90
2023-05-25T14:39:07.131Z,31.42
2023-05-25T14:41:35.286Z,31.36
2023-05-25T14:44:03.365Z,31.00
2023-05-25T14:46:33.904Z,30.70
2023-05-25T14:49:02.250Z,30.16
2023-05-25T14:51:30.944Z,29.33
2023-05-25T14:54:01.597Z,29.25
2023-05-25T14:56:29.787Z,29.70
2023-05-25T14:58:57.998Z,30.43
2023-05-25T15:01:26.494Z,30.91
2023-05-25T15:03:55.104Z,30.91
2023-05-25T15:06:23.853Z,30.75
2023-05-25T15:08:52.132Z,30.22
2023-05-25T15:11:20.725Z,29.31
2023-05-25T15:13:49.010Z,29.14
2023-05-25T15:16:17.516Z,28.68
2023-05-25T15:18:45.811Z,27.66
2023-05-25T15:21:16.445Z,27.18
2023-05-25T15:23:45.680Z,27.37
2023-05-25T15:26:14.214Z,27.03
2023-05-25T15:28:42.318Z,27.04
2023-05-25T15:31:13.433Z,26.78
2023-05-25T15:33:51.572Z,26.53
2023-05-25T15:36:25.398Z,26.46
2023-05-25T15:38:54.635Z,26.43
2023-05-25T15:41:23.453Z,26.45
2023-05-25T15:43:57.990Z,26.37
2023-05-25T15:46:32.036Z,26.22
2023-05-25T15:49:00.236Z,25.94
2023-05-25T15:51:28.612Z,25.64
2023-05-25T15:53:57.090Z,25.53
2023-05-25T15:56:25.174Z,25.46
2023-05-25T15:58:53.527Z,25.41
2023-05-25T16:01:23.890Z,25.34
2023-05-25T16:03:52.022Z,25.01
2023-05-25T16:06:20.769Z,25.03
2023-05-25T16:08:48.943Z,24.69
2023-05-25T16:11:17.220Z,24.79
2023-05-25T16:13:45.449Z,25.14
2023-05-25T16:16:13.706Z,24.86
2023-05-25T16:18:42.235Z,24.95
2023-05-25T16:21:10.377Z,25.03
2023-05-25T16:23:40.069Z,24.82
2023-05-25T16:26:10.223Z,24.50
2023-05-25T16:28:38.808Z,24.39
2023-05-25T16:31:07.480Z,24.50
2023-05-25T16:33:35.789Z,24.89
2023-05-25T16:36:04.105Z,24.65
2023-05-25T16:38:32.305Z,24.52
2023-05-25T16:41:00.553Z,24.26
2023-05-25T16:43:29.252Z,23.94
2023-05-25T16:45:57.388Z,23.81
2023-05-25T16:48:25.585Z,23.51
2023-05-25T16:50:53.580Z,23.46
2023-05-25T16:53:21.535Z,23.54
2023-05-25T16:55:49.605Z,23.44
2023-05-25T16:58:17.921Z,23.54
2023-05-25T17:00:45.927Z,23.97
2023-05-25T17:03:14.250Z,23.95
2023-05-25T17:05:42.528Z,23.84
2023-05-25T17:08:10.811Z,23.79
2023-05-25T17:10:38.927Z,23.64
2023-05-25T17:13:06.981Z,23.46
2023-05-25T17:15:35.168Z,23.46
2023-05-25T17:18:03.461Z,23.32
2023-05-25T17:20:31.677Z,23.38
2023-05-25T17:22:59.824Z,23.27
2023-05-25T17:25:28.332Z,23.12
2023-05-25T17:27:56.540Z,23.01
2023-05-25T17:30:24.614Z,22.89
2023-05-25T17:32:54.005Z,22.76
2023-05-25T17:35:22.072Z,22.61
2023-05-25T17:37:50.659Z,22.43
2023-05-25T17:40:18.756Z,22.36
2023-05-25T17:42:46.948Z,22.30
2023-05-25T17:45:15.022Z,22.16
2023-05-25T17:47:43.223Z,22.03
2023-05-25T17:50:11.459Z,21.88
2023-05-25T17:52:39.588Z,21.73
2023-05-25T17:55:08.375Z,21.58
2023-05-25T17:57:36.919Z,21.44
2023-05-25T18:00:05.768Z,21.31
2023-05-25T18:02:40.825Z,21.15
2023-05-25T18:05:09.171Z,20.97
2023-05-25T18:07:37.322Z,20.82
2023-05-25T18:10:05.961Z,20.67
2023-05-25T18:12:34.182Z,20.55
2023-05-25T18:15:02.583Z,20.45
2023-05-25T18:17:30.739Z,20.34
2023-05-25T18:19:58.894Z,20.25
2023-05-25T18:22:27.012Z,20.16
2023-05-25T18:24:55.056Z,20.07
2023-05-25T18:27:23.169Z,19.97
2023-05-25T18:29:51.211Z,19.89
2023-05-25T18:32:19.349Z,19.79
2023-05-25T18:34:48.485Z,19.73
2023-05-25T18:37:16.747Z,19.65
2023-05-25T18:39:45.019Z,19.53
2023-05-25T18:42:13.122Z,19.46
2023-05-25T18:44:41.787Z,19.43
2023-05-25T18:47:11.063Z,19.38
2023-05-25T18:49:39.191Z,19.35
2023-05-25T18:52:08.920Z,19.28
2023-05-25T18:54:39.396Z,19.20
2023-05-25T18:57:07.643Z,19.10
2023-05-25T18:59:35.836Z,19.02
2023-05-25T19:02:04.299Z,18.97
2023-05-25T19:04:32.701Z,18.92
2023-05-25T19:07:00.870Z,18.82
2023-05-25T19:09:29.069Z,18.76
2023-05-25T19:11:57.155Z,18.75
2023-05-25T19:14:25.297Z,18.64
2023-05-25T19:16:53.621Z,18.59
2023-05-25T19:19:21.709Z,18.58
2023-05-25T19:21:49.884Z,18.52
2023-05-25T19:24:21.027Z,18.48
2023-05-25T19:26:49.905Z,18.45
2023-05-25T19:29:18.234Z,18.41
2023-05-25T19:31:46.400Z,18.37
2023-05-25T19:34:14.583Z,18.34
2023-05-25T19:36:42.678Z,18.24
2023-05-25T19:39:10.893Z,18.20
2023-05-25T19:41:38.998Z,18.14
2023-05-25T19:44:07.694Z,18.08
2023-05-25T19:46:39.197Z,18.04
2023-05-25T19:49:07.584Z,17.98
2023-05-25T19:51:36.823Z,17.92
2023-05-25T19:54:04.883Z,17.84
2023-05-25T19:56:32.915Z,17.76
2023-05-25T19:59:00.999Z,17.69
2023-05-25T20:01:29.143Z,17.63
2023-05-25T20:03:57.703Z,17.57
2023-05-25T20:06:25.836Z,17.52
2023-05-25T20:08:53.962Z,17.46
2023-05-25T20:11:21.884Z,17.40
2023-05-25T20:13:49.918Z,17.34
2023-05-25T20:16:18.007Z,17.27
2023-05-25T20:18:46.042Z,17.23
2023-05-25T20:21:14.390Z,17.19
2023-05-25T20:23:42.423Z,17.14
2023-05-25T20:26:10.612Z,17.09
2023-05-25T20:28:38.575Z,17.06
2023-05-25T20:31:06.866Z,17.03
2023-05-25T20:33:35.155Z,16.96
2023-05-25T20:36:03.583Z,16.93
2023-05-25T20:38:31.651Z,16.90
2023-05-25T20:40:59.760Z,16.86
2023-05-25T20:43:27.851Z,16.82
2023-05-25T20:45:55.901Z,16.78
2023-05-25T20:48:23.894Z,16.76
2023-05-25T20:50:51.926Z,16.69
2023-05-25T20:53:19.939Z,16.64
2023-05-25T20:55:48.091Z,16.60
2023-05-25T20:58:16.187Z,16.58
2023-05-25T21:00:46.457Z,16.59
2023-05-25T21:03:14.602Z,16.60
2023-05-25T21:05:43.046Z,16.61
2023-05-25T21:08:11.942Z,16.67
2023-05-25T21:10:41.197Z,16.69
2023-05-25T21:13:09.231Z,16.68
2023-05-25T21:15:37.296Z,16.67
2023-05-25T21:18:07.058Z,16.65
2023-05-25T21:20:36.078Z,16.64
2023-05-25T21:23:04.055Z,16.62
2023-05-25T21:25:32.131Z,16.58
2023-05-25T21:28:00.295Z,16.57
2023-05-25T21:30:28.357Z,16.59
2023-05-25T21:32:56.483Z,16.63
2023-05-25T21:35:24.672Z,16.64
2023-05-25T21:37:52.648Z,16.67
2023-05-25T21:40:20.663Z,16.69
2023-05-25T21:42:51.110Z,16.71
2023-05-25T21:45:19.973Z,16.72
2023-05-25T21:47:48.030Z,16.69
2023-05-25T21:50:16.315Z,16.70
2023-05-25T21:52:44.235Z,16.71
2023-05-25T21:55:12.526Z,16.71
2023-05-25T21:57:40.813Z,16.72
2023-05-25T22:00:10.926Z,16.73
2023-05-25T22:02:41.595Z,16.68
2023-05-25T22:05:10.379Z,16.67
2023-05-25T22:07:38.429Z,16.69
2023-05-25T22:10:07.572Z,16.71
2023-05-25T22:12:35.562Z,16.71
2023-05-25T22:15:04.588Z,16.70
2023-05-25T22:17:32.776Z,16.71
2023-05-25T22:20:07.835Z,16.71
2023-05-25T22:22:37.539Z,16.69
2023-05-25T22:25:06.197Z,16.66
2023-05-25T22:27:34.271Z,16.57
2023-05-25T22:30:02.528Z,16.55
2023-05-25T22:32:30.767Z,16.56
2023-05-25T22:34:58.871Z,16.56
2023-05-25T22:37:26.982Z,16.57
2023-05-25T22:39:54.981Z,16.54
2023-05-25T22:42:23.085Z,16.47
2023-05-25T22:44:51.356Z,16.44
2023-05-25T22:47:19.696Z,16.40
2023-05-25T22:49:47.694Z,16.36
2023-05-25T22:52:15.883Z,16.31
2023-05-25T22:54:44.031Z,16.23
2023-05-25T22:57:12.135Z,16.18
2023-05-25T22:59:40.125Z,16.11
2023-05-25T23:02:08.417Z,15.98
2023-05-25T23:04:36.658Z,15.94
2023-05-25T23:07:04.883Z,15.92
2023-05-25T23:09:32.846Z,15.89
2023-05-25T23:12:01.817Z,15.87
2023-05-25T23:14:30.513Z,15.86
2023-05-25T23:16:58.571Z,15.87
2023-05-25T23:19:26.565Z,15.88
2023-05-25T23:21:54.644Z,15.84
2023-05-25T23:24:22.649Z,15.79
2023-05-25T23:26:50.746Z,15.74
2023-05-25T23:29:18.717Z,15.73
2023-05-25T23:31:47.306Z,15.66
2023-05-25T23:34:15.761Z,15.56
2023-05-25T23:36:43.902Z,15.48
2023-05-25T23:39:13.026Z,15.41
2023-05-25T23:41:41.219Z,15.40
2023-05-25T23:44:09.153Z,15.38
2023-05-25T23:46:37.177Z,15.39
2023-05-25T23:49:05.119Z,15.42
2023-05-25T23:51:33.247Z,15.47
2023-05-25T23:54:01.124Z,15.51
2023-05-25T23:56:29.142Z,15.54
2023-05-25T23:58:57.130Z,15.55
